sensor_id;sensor_type;location;lat;lon;timestamp;pressure;altitude;pressure_sealevel;temperature;humidity
40908;BME280;51055;59.436;24.778;2023-02-18T00:01:29;98798.28;;;0.89;100.00
40908;BME280;51055;59.436;24.778;2023-02-18T00:03:58;98792.53;;;0.96;100.00
40908;BME280;51055;59.436;24.778;2023-02-18T00:06:28;98790.38;;;0.90;100.00
40908;BME280;51055;59.436;24.778;2023-02-18T00:08:57;98781.38;;;0.94;100.00
40908;BME280;51055;59.436;24.778;2023-02-18T00:11:30;98778.38;;;0.88;100.00
40908;BME280;51055;59.436;24.778;2023-02-18T00:14:00;98779.94;;;0.90;100.00
40908;BME280;51055;59.436;24.778;2023-02-18T00:16:29;98771.34;;;0.88;100.00
40908;BME280;51055;59.436;24.778;2023-02-18T00:18:58;98751.31;;;0.89;100.00
40908;BME280;51055;59.436;24.778;2023-02-18T00:21:27;98754.53;;;0.92;100.00
40908;BME280;51055;59.436;24.778;2023-02-18T00:23:54;98753.22;;;0.87;100.00
40908;BME280;51055;59.436;24.778;2023-02-18T00:26:22;98742.78;;;0.87;100.00
40908;BME280;51055;59.436;24.778;2023-02-18T00:28:50;98746.53;;;0.83;100.00
40908;BME280;51055;59.436;24.778;2023-02-18T00:31:25;98735.78;;;0.87;100.00
40908;BME280;51055;59.436;24.778;2023-02-18T00:33:56;98727.34;;;0.84;100.00
40908;BME280;51055;59.436;24.778;2023-02-18T00:36:24;98724.94;;;0.81;100.00
40908;BME280;51055;59.436;24.778;2023-02-18T00:38:55;98728.28;;;0.83;100.00
40908;BME280;51055;59.436;24.778;2023-02-18T00:41:25;98721.66;;;0.90;100.00
40908;BME280;51055;59.436;24.778;2023-02-18T00:43:53;98711.34;;;0.88;100.00
40908;BME280;51055;59.436;24.778;2023-02-18T00:46:22;98721.91;;;0.87;100.00
40908;BME280;51055;59.436;24.778;2023-02-18T00:48:50;98706.47;;;0.84;100.00
40908;BME280;51055;59.436;24.778;2023-02-18T00:51:18;98696.72;;;0.86;100.00
40908;BME280;51055;59.436;24.778;2023-02-18T00:53:45;98709.91;;;0.84;100.00
40908;BME280;51055;59.436;24.778;2023-02-18T00:56:13;98685.69;;;0.82;100.00
40908;BME280;51055;59.436;24.778;2023-02-18T00:58:41;98680.13;;;0.87;100.00
40908;BME280;51055;59.436;24.778;2023-02-18T01:01:09;98687.66;;;0.91;100.00
40908;BME280;51055;59.436;24.778;2023-02-18T01:03:39;98678.63;;;0.95;100.00
40908;BME280;51055;59.436;24.778;2023-02-18T01:06:08;98677.63;;;0.85;100.00
40908;BME280;51055;59.436;24.778;2023-02-18T01:08:37;98680.13;;;0.87;100.00
40908;BME280;51055;59.436;24.778;2023-02-18T01:11:07;98668.03;;;0.86;100.00
40908;BME280;51055;59.436;24.778;2023-02-18T01:13:35;98673.38;;;0.84;100.00
40908;BME280;51055;59.436;24.778;2023-02-18T01:16:03;98667.09;;;0.87;100.00
40908;BME280;51055;59.436;24.778;2023-02-18T01:18:31;98660.19;;;0.86;100.00
40908;BME280;51055;59.436;24.778;2023-02-18T01:20:59;98651.75;;;0.82;100.00
40908;BME280;51055;59.436;24.778;2023-02-18T01:23:27;98651.53;;;0.85;100.00
40908;BME280;51055;59.436;24.778;2023-02-18T01:25:57;98629.69;;;0.75;100.00
40908;BME280;51055;59.436;24.778;2023-02-18T01:28:25;98645.50;;;0.85;100.00
40908;BME280;51055;59.436;24.778;2023-02-18T01:30:53;98625.44;;;0.85;100.00
40908;BME280;51055;59.436;24.778;2023-02-18T01:33:21;98621.50;;;0.80;100.00
40908;BME280;51055;59.436;24.778;2023-02-18T01:35:51;98612.84;;;0.79;100.00
40908;BME280;51055;59.436;24.778;2023-02-18T01:38:19;98612.28;;;0.87;100.00
40908;BME280;51055;59.436;24.778;2023-02-18T01:40:50;98606.78;;;0.79;100.00
40908;BME280;51055;59.436;24.778;2023-02-18T01:43:20;98611.41;;;0.75;100.00
40908;BME280;51055;59.436;24.778;2023-02-18T01:51:23;98584.97;;;0.80;100.00
40908;BME280;51055;59.436;24.778;2023-02-18T01:54:05;98585.59;;;0.83;100.00
40908;BME280;51055;59.436;24.778;2023-02-18T01:56:38;98581.66;;;0.78;100.00
40908;BME280;51055;59.436;24.778;2023-02-18T01:59:14;98567.25;;;0.72;100.00
40908;BME280;51055;59.436;24.778;2023-02-18T02:01:44;98571.44;;;0.75;100.00
40908;BME280;51055;59.436;24.778;2023-02-18T02:04:12;98567.16;;;0.74;100.00
40908;BME280;51055;59.436;24.778;2023-02-18T02:06:40;98560.41;;;0.71;100.00
40908;BME280;51055;59.436;24.778;2023-02-18T02:09:12;98566.00;;;0.78;100.00
40908;BME280;51055;59.436;24.778;2023-02-18T02:36:39;98533.84;;;0.77;100.00
40908;BME280;51055;59.436;24.778;2023-02-18T02:39:25;98528.88;;;0.74;100.00
40908;BME280;51055;59.436;24.778;2023-02-18T02:44:53;98527.28;;;0.61;100.00
40908;BME280;51055;59.436;24.778;2023-02-18T02:50:20;98523.50;;;0.65;100.00
40908;BME280;51055;59.436;24.778;2023-02-18T02:52:52;98528.94;;;0.62;100.00
40908;BME280;51055;59.436;24.778;2023-02-18T02:55:23;98515.53;;;0.66;100.00
40908;BME280;51055;59.436;24.778;2023-02-18T02:57:53;98513.06;;;0.65;100.00
40908;BME280;51055;59.436;24.778;2023-02-18T03:03:18;98508.78;;;0.64;100.00
40908;BME280;51055;59.436;24.778;2023-02-18T03:05:54;98510.09;;;0.69;100.00
40908;BME280;51055;59.436;24.778;2023-02-18T03:11:09;98509.47;;;0.66;100.00
40908;BME280;51055;59.436;24.778;2023-02-18T03:19:09;98499.97;;;0.53;100.00
40908;BME280;51055;59.436;24.778;2023-02-18T03:21:57;98502.09;;;0.48;100.00
40908;BME280;51055;59.436;24.778;2023-02-18T03:24:33;98499.59;;;0.47;100.00
40908;BME280;51055;59.436;24.778;2023-02-18T03:27:08;98494.97;;;0.50;100.00
40908;BME280;51055;59.436;24.778;2023-02-18T03:29:42;98505.47;;;0.62;100.00
40908;BME280;51055;59.436;24.778;2023-02-18T03:32:15;98503.78;;;0.61;100.00
40908;BME280;51055;59.436;24.778;2023-02-18T03:34:48;98481.84;;;0.52;100.00
40908;BME280;51055;59.436;24.778;2023-02-18T03:37:18;98491.91;;;0.57;100.00
40908;BME280;51055;59.436;24.778;2023-02-18T03:39:49;98488.13;;;0.61;100.00
40908;BME280;51055;59.436;24.778;2023-02-18T03:42:18;98480.41;;;0.59;100.00
40908;BME280;51055;59.436;24.778;2023-02-18T03:44:46;98493.91;;;0.53;100.00
40908;BME280;51055;59.436;24.778;2023-02-18T03:47:14;98497.97;;;0.57;100.00
40908;BME280;51055;59.436;24.778;2023-02-18T03:49:42;98491.06;;;0.45;100.00
40908;BME280;51055;59.436;24.778;2023-02-18T03:52:10;98483.69;;;0.39;100.00
40908;BME280;51055;59.436;24.778;2023-02-18T03:54:38;98483.69;;;0.39;100.00
40908;BME280;51055;59.436;24.778;2023-02-18T03:57:05;98493.59;;;0.34;100.00
40908;BME280;51055;59.436;24.778;2023-02-18T03:59:33;98485.34;;;0.40;100.00
40908;BME280;51055;59.436;24.778;2023-02-18T04:02:01;98483.47;;;0.42;100.00
40908;BME280;51055;59.436;24.778;2023-02-18T04:04:28;98477.97;;;0.34;100.00
40908;BME280;51055;59.436;24.778;2023-02-18T04:06:56;98485.09;;;0.32;100.00
40908;BME280;51055;59.436;24.778;2023-02-18T04:09:24;98486.63;;;0.34;100.00
40908;BME280;51055;59.436;24.778;2023-02-18T04:11:52;98474.66;;;0.32;100.00
40908;BME280;51055;59.436;24.778;2023-02-18T04:14:19;98472.50;;;0.26;100.00
40908;BME280;51055;59.436;24.778;2023-02-18T04:16:47;98478.75;;;0.23;100.00
40908;BME280;51055;59.436;24.778;2023-02-18T04:19:15;98472.97;;;0.31;100.00
40908;BME280;51055;59.436;24.778;2023-02-18T04:21:42;98474.38;;;0.24;100.00
40908;BME280;51055;59.436;24.778;2023-02-18T04:24:10;98489.69;;;0.28;100.00
40908;BME280;51055;59.436;24.778;2023-02-18T04:26:37;98463.84;;;0.25;100.00
40908;BME280;51055;59.436;24.778;2023-02-18T04:29:05;98471.66;;;0.25;100.00
40908;BME280;51055;59.436;24.778;2023-02-18T04:31:33;98474.66;;;0.32;100.00
40908;BME280;51055;59.436;24.778;2023-02-18T04:34:01;98472.03;;;0.32;100.00
40908;BME280;51055;59.436;24.778;2023-02-18T04:36:29;98468.59;;;0.31;100.00
40908;BME280;51055;59.436;24.778;2023-02-18T04:38:56;98473.31;;;0.26;100.00
40908;BME280;51055;59.436;24.778;2023-02-18T04:41:24;98476.53;;;0.30;100.00
40908;BME280;51055;59.436;24.778;2023-02-18T04:43:52;98466.25;;;0.39;100.00
40908;BME280;51055;59.436;24.778;2023-02-18T04:46:19;98474.28;;;0.25;100.00
40908;BME280;51055;59.436;24.778;2023-02-18T04:48:47;98475.44;;;0.21;100.00
40908;BME280;51055;59.436;24.778;2023-02-18T04:51:14;98471.06;;;0.22;100.00
40908;BME280;51055;59.436;24.778;2023-02-18T04:53:42;98469.50;;;0.19;100.00
40908;BME280;51055;59.436;24.778;2023-02-18T04:56:10;98469.28;;;0.22;100.00
40908;BME280;51055;59.436;24.778;2023-02-18T04:58:38;98468.84;;;0.28;100.00
40908;BME280;51055;59.436;24.778;2023-02-18T05:01:06;98462.41;;;0.21;100.00
40908;BME280;51055;59.436;24.778;2023-02-18T05:03:33;98462.63;;;0.18;100.00
40908;BME280;51055;59.436;24.778;2023-02-18T05:06:01;98466.06;;;0.19;100.00
40908;BME280;51055;59.436;24.778;2023-02-18T05:08:30;98468.78;;;0.17;100.00
40908;BME280;51055;59.436;24.778;2023-02-18T05:10:58;98463.91;;;0.13;100.00
40908;BME280;51055;59.436;24.778;2023-02-18T05:13:26;98462.16;;;0.00;100.00
40908;BME280;51055;59.436;24.778;2023-02-18T05:15:54;98461.19;;;0.14;100.00
40908;BME280;51055;59.436;24.778;2023-02-18T05:18:21;98463.47;;;0.19;100.00
40908;BME280;51055;59.436;24.778;2023-02-18T05:20:49;98476.34;;;0.09;100.00
40908;BME280;51055;59.436;24.778;2023-02-18T05:23:16;98469.53;;;0.07;100.00
40908;BME280;51055;59.436;24.778;2023-02-18T05:25:46;98464.13;;;0.10;100.00
40908;BME280;51055;59.436;24.778;2023-02-18T05:28:15;98469.13;;;0.13;100.00
40908;BME280;51055;59.436;24.778;2023-02-18T05:30:43;98465.91;;;0.09;100.00
40908;BME280;51055;59.436;24.778;2023-02-18T05:33:11;98468.91;;;0.16;100.00
40908;BME280;51055;59.436;24.778;2023-02-18T05:35:38;98463.56;;;0.17;100.00
40908;BME280;51055;59.436;24.778;2023-02-18T05:38:06;98459.50;;;0.13;100.00
40908;BME280;51055;59.436;24.778;2023-02-18T05:40:34;98464.63;;;0.15;100.00
40908;BME280;51055;59.436;24.778;2023-02-18T05:43:02;98472.22;;;0.18;100.00
40908;BME280;51055;59.436;24.778;2023-02-18T05:45:30;98473.28;;;0.15;100.00
40908;BME280;51055;59.436;24.778;2023-02-18T05:47:58;98469.94;;;0.13;100.00
40908;BME280;51055;59.436;24.778;2023-02-18T05:50:26;98465.69;;;0.12;100.00
40908;BME280;51055;59.436;24.778;2023-02-18T05:52:53;98463.06;;;0.12;100.00
40908;BME280;51055;59.436;24.778;2023-02-18T05:55:21;98462.25;;;0.12;100.00
40908;BME280;51055;59.436;24.778;2023-02-18T05:57:50;98472.13;;;0.19;100.00
40908;BME280;51055;59.436;24.778;2023-02-18T06:00:18;98461.91;;;0.16;100.00
40908;BME280;51055;59.436;24.778;2023-02-18T06:02:46;98465.09;;;0.20;100.00
40908;BME280;51055;59.436;24.778;2023-02-18T06:05:13;98460.84;;;0.19;100.00
40908;BME280;51055;59.436;24.778;2023-02-18T06:07:41;98454.66;;;0.20;100.00
40908;BME280;51055;59.436;24.778;2023-02-18T06:10:09;98460.25;;;0.15;100.00
40908;BME280;51055;59.436;24.778;2023-02-18T06:12:36;98463.22;;;0.22;100.00
40908;BME280;51055;59.436;24.778;2023-02-18T06:15:04;98456.84;;;0.26;100.00
40908;BME280;51055;59.436;24.778;2023-02-18T06:17:32;98464.69;;;0.26;100.00
40908;BME280;51055;59.436;24.778;2023-02-18T06:20:01;98461.47;;;0.22;100.00
40908;BME280;51055;59.436;24.778;2023-02-18T06:22:32;98464.38;;;0.18;100.00
40908;BME280;51055;59.436;24.778;2023-02-18T06:24:59;98469.50;;;0.19;100.00
40908;BME280;51055;59.436;24.778;2023-02-18T06:27:27;98475.19;;;0.24;100.00
40908;BME280;51055;59.436;24.778;2023-02-18T06:29:55;98467.00;;;0.18;100.00
40908;BME280;51055;59.436;24.778;2023-02-18T06:32:23;98476.53;;;0.30;100.00
40908;BME280;51055;59.436;24.778;2023-02-18T06:34:51;98475.34;;;0.23;100.00
40908;BME280;51055;59.436;24.778;2023-02-18T06:37:18;98469.06;;;0.25;100.00
40908;BME280;51055;59.436;24.778;2023-02-18T06:39:46;98474.03;;;0.28;100.00
40908;BME280;51055;59.436;24.778;2023-02-18T06:42:14;98474.28;;;0.25;100.00
40908;BME280;51055;59.436;24.778;2023-02-18T06:44:42;98478.53;;;0.26;100.00
40908;BME280;51055;59.436;24.778;2023-02-18T06:47:09;98481.72;;;0.30;100.00
40908;BME280;51055;59.436;24.778;2023-02-18T06:49:37;98481.88;;;0.28;100.00
40908;BME280;51055;59.436;24.778;2023-02-18T06:52:05;98470.81;;;0.25;100.00
40908;BME280;51055;59.436;24.778;2023-02-18T06:54:33;98478.31;;;0.29;100.00
40908;BME280;51055;59.436;24.778;2023-02-18T06:57:01;98473.09;;;0.29;100.00
40908;BME280;51055;59.436;24.778;2023-02-18T06:59:29;98477.03;;;0.35;100.00
40908;BME280;51055;59.436;24.778;2023-02-18T07:01:57;98479.19;;;0.41;100.00
40908;BME280;51055;59.436;24.778;2023-02-18T07:04:25;98474.28;;;0.36;100.00
40908;BME280;51055;59.436;24.778;2023-02-18T07:06:52;98471.91;;;0.33;100.00
40908;BME280;51055;59.436;24.778;2023-02-18T07:09:20;98471.75;;;0.47;100.00
40908;BME280;51055;59.436;24.778;2023-02-18T07:11:47;98473.28;;;0.50;100.00
40908;BME280;51055;59.436;24.778;2023-02-18T07:14:15;98470.06;;;0.46;100.00
40908;BME280;51055;59.436;24.778;2023-02-18T07:16:42;98469.97;;;0.48;100.00
40908;BME280;51055;59.436;24.778;2023-02-18T07:19:10;98473.41;;;0.48;100.00
40908;BME280;51055;59.436;24.778;2023-02-18T07:21:41;98466.63;;;0.46;100.00
40908;BME280;51055;59.436;24.778;2023-02-18T07:24:11;98480.63;;;0.45;100.00
40908;BME280;51055;59.436;24.778;2023-02-18T07:26:39;98476.25;;;0.45;100.00
40908;BME280;51055;59.436;24.778;2023-02-18T07:29:06;98471.75;;;0.47;100.00
40908;BME280;51055;59.436;24.778;2023-02-18T07:31:34;98462.75;;;0.51;100.00
40908;BME280;51055;59.436;24.778;2023-02-18T07:34:02;98472.44;;;0.49;100.00
40908;BME280;51055;59.436;24.778;2023-02-18T07:36:30;98476.13;;;0.47;100.00
40908;BME280;51055;59.436;24.778;2023-02-18T07:38:58;98466.91;;;0.54;100.00
40908;BME280;51055;59.436;24.778;2023-02-18T07:41:25;98478.41;;;0.63;100.00
40908;BME280;51055;59.436;24.778;2023-02-18T07:43:53;98473.94;;;0.65;100.00
40908;BME280;51055;59.436;24.778;2023-02-18T07:46:21;98476.56;;;0.76;100.00
40908;BME280;51055;59.436;24.778;2023-02-18T07:48:48;98466.56;;;0.70;100.00
40908;BME280;51055;59.436;24.778;2023-02-18T07:51:16;98470.28;;;0.78;100.00
40908;BME280;51055;59.436;24.778;2023-02-18T07:53:44;98467.69;;;0.78;100.00
40908;BME280;51055;59.436;24.778;2023-02-18T07:56:11;98471.38;;;0.87;100.00
40908;BME280;51055;59.436;24.778;2023-02-18T07:58:39;98477.09;;;1.03;100.00
40908;BME280;51055;59.436;24.778;2023-02-18T08:01:11;98469.72;;;0.97;100.00
40908;BME280;51055;59.436;24.778;2023-02-18T08:03:42;98472.94;;;1.00;100.00
40908;BME280;51055;59.436;24.778;2023-02-18T08:06:27;98479.34;;;1.08;100.00
40908;BME280;51055;59.436;24.778;2023-02-18T08:08:55;98472.44;;;0.95;100.00
40908;BME280;51055;59.436;24.778;2023-02-18T08:11:23;98473.41;;;0.94;100.00
40908;BME280;51055;59.436;24.778;2023-02-18T08:13:51;98477.91;;;1.03;100.00
40908;BME280;51055;59.436;24.778;2023-02-18T08:16:20;98480.28;;;1.07;100.00
40908;BME280;51055;59.436;24.778;2023-02-18T08:18:50;98479.00;;;1.01;100.00
40908;BME280;51055;59.436;24.778;2023-02-18T08:21:20;98479.59;;;1.04;100.00
40908;BME280;51055;59.436;24.778;2023-02-18T08:23:48;98489.50;;;0.88;100.00
40908;BME280;51055;59.436;24.778;2023-02-18T08:26:16;98490.38;;;1.00;100.00
40908;BME280;51055;59.436;24.778;2023-02-18T08:28:45;98493.22;;;0.97;100.00
40908;BME280;51055;59.436;24.778;2023-02-18T08:31:27;98496.19;;;1.15;100.00
40908;BME280;51055;59.436;24.778;2023-02-18T08:33:56;98495.59;;;1.22;100.00
40908;BME280;51055;59.436;24.778;2023-02-18T08:36:26;98497.03;;;1.15;100.00
40908;BME280;51055;59.436;24.778;2023-02-18T08:38:55;98505.81;;;1.14;100.00
40908;BME280;51055;59.436;24.778;2023-02-18T08:41:22;98510.47;;;1.33;100.00
40908;BME280;51055;59.436;24.778;2023-02-18T08:43:50;98505.84;;;1.36;100.00
40908;BME280;51055;59.436;24.778;2023-02-18T08:46:17;98505.47;;;1.30;100.00
40908;BME280;51055;59.436;24.778;2023-02-18T08:49:02;98509.41;;;1.24;100.00
40908;BME280;51055;59.436;24.778;2023-02-18T08:51:31;98507.13;;;1.20;100.00
40908;BME280;51055;59.436;24.778;2023-02-18T08:53:59;98507.69;;;1.12;100.00
40908;BME280;51055;59.436;24.778;2023-02-18T08:56:26;98508.16;;;1.06;100.00
40908;BME280;51055;59.436;24.778;2023-02-18T08:58:54;98522.19;;;1.16;100.00
40908;BME280;51055;59.436;24.778;2023-02-18T09:01:21;98502.97;;;1.17;100.00
40908;BME280;51055;59.436;24.778;2023-02-18T09:03:49;98501.06;;;1.19;100.00
40908;BME280;51055;59.436;24.778;2023-02-18T09:06:17;98521.00;;;1.31;100.00
40908;BME280;51055;59.436;24.778;2023-02-18T09:08:45;98504.63;;;1.29;100.00
40908;BME280;51055;59.436;24.778;2023-02-18T09:11:13;98507.50;;;1.26;100.00
40908;BME280;51055;59.436;24.778;2023-02-18T09:13:41;98513.53;;;1.16;100.00
40908;BME280;51055;59.436;24.778;2023-02-18T09:16:17;98511.16;;;1.35;100.00
40908;BME280;51055;59.436;24.778;2023-02-18T09:18:45;98505.72;;;1.27;100.00
40908;BME280;51055;59.436;24.778;2023-02-18T09:21:15;98507.59;;;1.36;100.00
40908;BME280;51055;59.436;24.778;2023-02-18T09:23:43;98509.63;;;1.43;100.00
40908;BME280;51055;59.436;24.778;2023-02-18T09:26:13;98508.69;;;1.33;100.00
40908;BME280;51055;59.436;24.778;2023-02-18T09:28:41;98507.25;;;1.29;100.00
40908;BME280;51055;59.436;24.778;2023-02-18T09:31:14;98502.88;;;1.30;100.00
40908;BME280;51055;59.436;24.778;2023-02-18T09:33:47;98502.75;;;1.42;100.00
40908;BME280;51055;59.436;24.778;2023-02-18T09:36:15;98502.50;;;1.45;100.00
40908;BME280;51055;59.436;24.778;2023-02-18T09:38:43;98508.22;;;1.50;100.00
40908;BME280;51055;59.436;24.778;2023-02-18T09:44:10;98511.19;;;1.57;100.00
40908;BME280;51055;59.436;24.778;2023-02-18T09:46:49;98518.06;;;1.58;100.00
40908;BME280;51055;59.436;24.778;2023-02-18T09:49:25;98518.78;;;1.60;100.00
40908;BME280;51055;59.436;24.778;2023-02-18T09:51:54;98512.38;;;1.53;100.00
40908;BME280;51055;59.436;24.778;2023-02-18T09:54:23;98515.81;;;1.53;100.00
40908;BME280;51055;59.436;24.778;2023-02-18T09:56:51;98512.00;;;1.57;100.00
40908;BME280;51055;59.436;24.778;2023-02-18T09:59:21;98508.19;;;1.62;100.00
40908;BME280;51055;59.436;24.778;2023-02-18T10:01:51;98502.88;;;1.63;100.00
40908;BME280;51055;59.436;24.778;2023-02-18T10:04:42;98507.84;;;1.55;100.00
40908;BME280;51055;59.436;24.778;2023-02-18T10:07:25;98497.53;;;1.53;100.00
40908;BME280;51055;59.436;24.778;2023-02-18T10:09:58;98508.56;;;1.46;100.00
40908;BME280;51055;59.436;24.778;2023-02-18T10:12:29;98506.44;;;1.40;100.00
40908;BME280;51055;59.436;24.778;2023-02-18T10:15:01;98502.41;;;1.47;100.00
40908;BME280;51055;59.436;24.778;2023-02-18T10:17:31;98502.03;;;1.40;100.00
40908;BME280;51055;59.436;24.778;2023-02-18T10:20:01;98494.81;;;1.44;100.00
40908;BME280;51055;59.436;24.778;2023-02-18T10:22:45;98495.25;;;1.49;100.00
40908;BME280;51055;59.436;24.778;2023-02-18T10:25:18;98502.50;;;1.45;100.00
40908;BME280;51055;59.436;24.778;2023-02-18T10:27:47;98502.75;;;1.42;100.00
40908;BME280;51055;59.436;24.778;2023-02-18T10:30:20;98509.25;;;1.48;100.00
40908;BME280;51055;59.436;24.778;2023-02-18T10:32:55;98511.88;;;1.48;100.00
40908;BME280;51055;59.436;24.778;2023-02-18T10:38:40;98490.84;;;1.61;100.00
40908;BME280;51055;59.436;24.778;2023-02-18T10:46:44;98492.41;;;1.63;100.00
40908;BME280;51055;59.436;24.778;2023-02-18T10:50:02;98490.63;;;1.64;100.00
40908;BME280;51055;59.436;24.778;2023-02-18T10:52:40;98496.31;;;1.69;100.00
40908;BME280;51055;59.436;24.778;2023-02-18T10:55:14;98492.28;;;1.76;100.00
40908;BME280;51055;59.436;24.778;2023-02-18T10:57:48;98491.59;;;1.63;100.00
40908;BME280;51055;59.436;24.778;2023-02-18T11:00:21;98497.03;;;1.60;100.00
40908;BME280;51055;59.436;24.778;2023-02-18T11:03:25;98496.81;;;1.63;100.00
40908;BME280;51055;59.436;24.778;2023-02-18T11:05:55;98498.00;;;1.58;100.00
40908;BME280;51055;59.436;24.778;2023-02-18T11:08:27;98491.69;;;1.72;100.00
40908;BME280;51055;59.436;24.778;2023-02-18T11:10:56;98491.94;;;1.69;100.00
40908;BME280;51055;59.436;24.778;2023-02-18T11:13:29;98488.13;;;1.62;100.00
40908;BME280;51055;59.436;24.778;2023-02-18T11:16:00;98485.63;;;1.61;100.00
40908;BME280;51055;59.436;24.778;2023-02-18T11:18:33;98494.53;;;1.58;100.00
40908;BME280;51055;59.436;24.778;2023-02-18T11:21:21;98490.63;;;1.64;100.00
40908;BME280;51055;59.436;24.778;2023-02-18T11:23:53;98496.91;;;1.61;100.00
40908;BME280;51055;59.436;24.778;2023-02-18T11:26:30;98496.31;;;1.80;100.00
40908;BME280;51055;59.436;24.778;2023-02-18T11:29:04;98496.06;;;1.83;100.00
40908;BME280;51055;59.436;24.778;2023-02-18T11:31:40;98500.81;;;1.78;100.00
40908;BME280;51055;59.436;24.778;2023-02-18T11:34:35;98495.13;;;1.73;100.00
40908;BME280;51055;59.436;24.778;2023-02-18T11:37:10;98495.97;;;1.62;100.00
40908;BME280;51055;59.436;24.778;2023-02-18T11:39:43;98502.88;;;1.63;100.00
40908;BME280;51055;59.436;24.778;2023-02-18T11:42:17;98496.56;;;1.66;100.00
40908;BME280;51055;59.436;24.778;2023-02-18T11:44:49;98502.72;;;1.65;100.00
40908;BME280;51055;59.436;24.778;2023-02-18T11:47:43;98504.75;;;1.61;100.00
40908;BME280;51055;59.436;24.778;2023-02-18T11:50:17;98512.59;;;1.61;100.00
40908;BME280;51055;59.436;24.778;2023-02-18T11:52:49;98510.22;;;1.58;100.00
40908;BME280;51055;59.436;24.778;2023-02-18T11:55:27;98507.72;;;1.68;100.00
40908;BME280;51055;59.436;24.778;2023-02-18T11:58:01;98513.44;;;1.62;100.00
40908;BME280;51055;59.436;24.778;2023-02-18T12:00:49;98505.25;;;1.66;100.00
40908;BME280;51055;59.436;24.778;2023-02-18T12:04:10;98513.44;;;1.50;100.00
40908;BME280;51055;59.436;24.778;2023-02-18T12:06:38;98507.00;;;1.54;100.00
40908;BME280;51055;59.436;24.778;2023-02-18T12:12:00;98507.84;;;1.55;100.00
40908;BME280;51055;59.436;24.778;2023-02-18T12:14:29;98513.22;;;1.53;100.00
40908;BME280;51055;59.436;24.778;2023-02-18T12:22:43;98519.03;;;1.57;100.00
40908;BME280;51055;59.436;24.778;2023-02-18T12:33:23;98523.41;;;1.56;100.00
40908;BME280;51055;59.436;24.778;2023-02-18T12:41:33;98521.84;;;1.65;100.00
40908;BME280;51055;59.436;24.778;2023-02-18T12:47:14;98512.34;;;1.64;100.00
40908;BME280;51055;59.436;24.778;2023-02-18T12:57:55;98518.44;;;1.53;100.00
40908;BME280;51055;59.436;24.778;2023-02-18T13:14:23;98511.63;;;1.51;100.00
40908;BME280;51055;59.436;24.778;2023-02-18T13:16:54;98510.34;;;1.45;100.00
40908;BME280;51055;59.436;24.778;2023-02-18T13:19:50;98509.28;;;1.59;100.00
40908;BME280;51055;59.436;24.778;2023-02-18T13:22:21;98505.13;;;1.56;100.00
40908;BME280;51055;59.436;24.778;2023-02-18T13:24:50;98503.34;;;1.57;100.00
40908;BME280;51055;59.436;24.778;2023-02-18T13:35:39;98506.56;;;1.49;100.00
40908;BME280;51055;59.436;24.778;2023-02-18T13:41:01;98509.03;;;1.40;100.00
40908;BME280;51055;59.436;24.778;2023-02-18T13:43:34;98513.56;;;1.49;100.00
40908;BME280;51055;59.436;24.778;2023-02-18T13:46:15;98516.28;;;1.58;100.00
40908;BME280;51055;59.436;24.778;2023-02-18T13:48:48;98509.13;;;1.61;100.00
40908;BME280;51055;59.436;24.778;2023-02-18T13:51:39;98509.50;;;1.56;100.00
40908;BME280;51055;59.436;24.778;2023-02-18T13:57:02;98506.78;;;1.46;100.00
40908;BME280;51055;59.436;24.778;2023-02-18T13:59:44;98502.28;;;1.37;100.00
40908;BME280;51055;59.436;24.778;2023-02-18T14:20:46;98516.63;;;1.32;100.00
40908;BME280;51055;59.436;24.778;2023-02-18T14:25:54;98505.25;;;1.33;100.00
40908;BME280;51055;59.436;24.778;2023-02-18T14:39:31;98510.13;;;1.37;100.00
40908;BME280;51055;59.436;24.778;2023-02-18T14:45:08;98516.75;;;1.30;100.00
40908;BME280;51055;59.436;24.778;2023-02-18T14:50:38;98519.84;;;1.24;100.00
40908;BME280;51055;59.436;24.778;2023-02-18T14:53:13;98518.66;;;1.17;100.00
40908;BME280;51055;59.436;24.778;2023-02-18T14:55:47;98519.34;;;1.19;100.00
40908;BME280;51055;59.436;24.778;2023-02-18T14:58:38;98521.03;;;1.20;100.00
40908;BME280;51055;59.436;24.778;2023-02-18T15:01:23;98521.84;;;1.21;100.00
40908;BME280;51055;59.436;24.778;2023-02-18T15:03:53;98519.25;;;1.21;100.00
40908;BME280;51055;59.436;24.778;2023-02-18T15:06:33;98524.56;;;1.19;100.00
40908;BME280;51055;59.436;24.778;2023-02-18T15:09:13;98520.19;;;1.20;100.00
40908;BME280;51055;59.436;24.778;2023-02-18T15:11:44;98521.94;;;1.19;100.00
40908;BME280;51055;59.436;24.778;2023-02-18T15:14:18;98520.03;;;1.21;100.00
40908;BME280;51055;59.436;24.778;2023-02-18T15:16:47;98524.59;;;1.30;100.00
40908;BME280;51055;59.436;24.778;2023-02-18T15:19:18;98529.22;;;1.27;100.00
40908;BME280;51055;59.436;24.778;2023-02-18T15:21:49;98517.94;;;1.26;100.00
40908;BME280;51055;59.436;24.778;2023-02-18T15:27:00;98522.19;;;1.16;100.00
40908;BME280;51055;59.436;24.778;2023-02-18T15:29:37;98524.53;;;1.08;100.00
40908;BME280;51055;59.436;24.778;2023-02-18T15:34:47;98533.66;;;1.02;100.00
40908;BME280;51055;59.436;24.778;2023-02-18T15:37:16;98530.34;;;1.00;100.00
40908;BME280;51055;59.436;24.778;2023-02-18T15:39:45;98536.13;;;0.93;100.00
40908;BME280;51055;59.436;24.778;2023-02-18T15:44:45;98536.84;;;0.95;100.00
40908;BME280;51055;59.436;24.778;2023-02-18T15:47:15;98533.91;;;0.99;100.00
40908;BME280;51055;59.436;24.778;2023-02-18T15:49:47;98536.75;;;0.96;100.00
40908;BME280;51055;59.436;24.778;2023-02-18T15:52:23;98535.81;;;1.09;100.00
40908;BME280;51055;59.436;24.778;2023-02-18T15:54:52;98543.41;;;1.12;100.00
40908;BME280;51055;59.436;24.778;2023-02-18T15:57:24;98540.94;;;1.10;100.00